Time;durP1;ratioP1;P1;durP2;ratioP2;P2;SDS_P1;SDS_P2;PMS_P1;PMS_P2;Temp;Humidity;BMP_temperature;BMP_pressure;BME280_temperature;BME280_humidity;BME280_pressure;Samples;Min_cycle;Max_cycle;Signal;HPM_P1;HPM_P2
2022/07/26 00:01:21;;;;;;;6.30;2.03;;;22.20;99.90;;;;;;4936568;29;20515;-77
2022/07/26 00:03:48;;;;;;;8.68;1.83;;;22.20;99.90;;;;;;4936194;29;20086;-77
2022/07/26 00:06:13;;;;;;;4.07;1.95;;;22.10;99.90;;;;;;4936690;29;20027;-77
2022/07/26 00:08:39;;;;;;;6.35;1.95;;;22.10;99.90;;;;;;4936604;29;20050;-77
2022/07/26 00:11:05;;;;;;;8.15;2.50;;;22.10;99.90;;;;;;4936451;29;20028;-77
2022/07/26 00:13:31;;;;;;;6.07;1.65;;;22.10;99.90;;;;;;4936746;29;20866;-77
2022/07/26 00:15:57;;;;;;;6.32;1.98;;;22.00;99.90;;;;;;4935875;29;20110;-77
2022/07/26 00:18:23;;;;;;;4.97;1.67;;;21.90;99.90;;;;;;4936503;29;20042;-77
2022/07/26 00:20:50;;;;;;;4.32;1.77;;;21.90;99.90;;;;;;4936704;29;20032;-78
2022/07/26 00:23:18;;;;;;;6.00;1.67;;;21.80;99.90;;;;;;4935833;29;20036;-77
2022/07/26 00:25:44;;;;;;;6.63;1.88;;;21.80;99.90;;;;;;4936257;29;20028;-77
2022/07/26 00:28:10;;;;;;;4.45;1.98;;;21.90;99.90;;;;;;4936106;29;20099;-77
2022/07/26 00:30:35;;;;;;;7.45;2.20;;;21.80;99.90;;;;;;4936584;29;20142;-77
2022/07/26 00:33:01;;;;;;;7.38;2.50;;;21.80;99.90;;;;;;4935202;29;20045;-77
2022/07/26 00:35:27;;;;;;;4.97;2.05;;;21.80;99.90;;;;;;4919087;29;20388;-77
2022/07/26 00:37:52;;;;;;;6.57;2.15;;;21.80;99.90;;;;;;4940318;29;20098;-77
2022/07/26 00:40:18;;;;;;;8.45;2.35;;;21.80;99.90;;;;;;4953787;29;20038;-77
2022/07/26 00:42:44;;;;;;;6.35;1.95;;;21.80;99.90;;;;;;4942597;29;20028;-77
2022/07/26 00:45:12;;;;;;;5.43;2.20;;;21.70;99.90;;;;;;4935760;29;20483;-77
2022/07/26 00:47:38;;;;;;;6.55;2.20;;;21.70;99.90;;;;;;4935128;29;20094;-77
2022/07/26 00:50:10;;;;;;;9.68;2.42;;;21.70;99.90;;;;;;4935722;29;20488;-77
2022/07/26 00:52:36;;;;;;;6.75;2.50;;;21.70;99.90;;;;;;4935556;29;20063;-77
2022/07/26 00:55:03;;;;;;;7.45;2.63;;;21.70;99.90;;;;;;4936042;29;20110;-77
2022/07/26 00:57:29;;;;;;;10.80;1.95;;;21.70;99.90;;;;;;4935382;29;20086;-77
2022/07/26 00:59:55;;;;;;;8.10;2.33;;;21.70;99.90;;;;;;4935334;29;20110;-77
2022/07/26 01:02:21;;;;;;;10.63;2.05;;;21.70;99.90;;;;;;4934842;29;20036;-77
2022/07/26 01:04:46;;;;;;;4.97;2.50;;;21.60;99.90;;;;;;4935824;29;20047;-77
2022/07/26 01:07:13;;;;;;;7.03;2.40;;;21.60;99.90;;;;;;4935119;29;20023;-77
2022/07/26 01:09:39;;;;;;;5.97;2.00;;;21.50;99.90;;;;;;4935672;29;20491;-77
2022/07/26 01:12:05;;;;;;;9.40;2.45;;;21.40;99.90;;;;;;4944899;29;20023;-77
2022/07/26 01:14:31;;;;;;;4.10;1.98;;;21.40;99.90;;;;;;4954546;29;20480;-77
2022/07/26 01:16:57;;;;;;;8.43;2.35;;;21.30;99.90;;;;;;4954301;29;20035;-77
2022/07/26 01:19:22;;;;;;;7.35;2.40;;;21.40;99.90;;;;;;4954328;29;20390;-77
2022/07/26 01:21:50;;;;;;;7.97;2.30;;;21.30;99.90;;;;;;4954299;29;20023;-77
2022/07/26 01:24:16;;;;;;;6.00;2.13;;;21.30;99.90;;;;;;4954794;29;20054;-77
2022/07/26 01:26:42;;;;;;;8.15;2.58;;;21.40;99.90;;;;;;4944472;29;20028;-77
2022/07/26 01:29:07;;;;;;;5.68;2.35;;;21.40;99.90;;;;;;4934999;29;20448;-77
2022/07/26 01:31:33;;;;;;;8.50;2.35;;;21.40;99.90;;;;;;4935000;29;20499;-77
2022/07/26 01:33:59;;;;;;;5.47;2.35;;;21.40;99.90;;;;;;4934532;29;20039;-78
2022/07/26 01:36:24;;;;;;;6.40;2.30;;;21.30;99.90;;;;;;4944570;29;20495;-77
2022/07/26 01:38:50;;;;;;;8.23;2.60;;;21.30;99.90;;;;;;4950852;29;20038;-77
2022/07/26 01:41:16;;;;;;;7.13;2.40;;;21.40;99.90;;;;;;4934772;29;20028;-77
2022/07/26 01:43:42;;;;;;;6.93;2.30;;;21.40;99.90;;;;;;4935031;29;20108;-77
2022/07/26 01:46:08;;;;;;;8.55;2.28;;;21.30;99.90;;;;;;4917673;29;20020;-77
2022/07/26 01:48:35;;;;;;;13.35;3.00;;;21.30;99.90;;;;;;4934501;29;20460;-77
2022/07/26 01:51:01;;;;;;;9.93;2.50;;;21.30;99.90;;;;;;4934236;29;20027;-77
2022/07/26 01:53:27;;;;;;;3.72;1.92;;;21.30;99.90;;;;;;4934871;29;20405;-77
2022/07/26 01:55:53;;;;;;;11.23;2.70;;;21.20;99.90;;;;;;4934595;29;20034;-77
2022/07/26 01:58:19;;;;;;;9.48;2.80;;;21.10;99.90;;;;;;4934614;29;20232;-77
2022/07/26 02:00:45;;;;;;;7.00;2.60;;;21.20;99.90;;;;;;4934753;29;20023;-77
2022/07/26 02:03:11;;;;;;;9.50;3.08;;;21.20;99.90;;;;;;4934045;29;20166;-77
2022/07/26 02:05:36;;;;;;;7.90;2.33;;;21.20;99.90;;;;;;4934450;29;20381;-77
2022/07/26 02:08:02;;;;;;;7.32;2.75;;;21.00;99.90;;;;;;4934713;29;20155;-77
2022/07/26 02:13:13;;;;;;;9.35;2.63;;;21.10;99.90;;;;;;4934469;29;20626;-77
2022/07/26 02:15:39;;;;;;;7.95;2.65;;;21.10;99.90;;;;;;4934722;29;20042;-77
2022/07/26 02:18:05;;;;;;;9.65;2.78;;;21.10;99.90;;;;;;4936598;29;20032;-77
2022/07/26 02:20:32;;;;;;;5.72;2.33;;;21.00;99.90;;;;;;4938300;29;20645;-77
2022/07/26 02:22:59;;;;;;;9.43;2.95;;;21.00;99.90;;;;;;4938388;29;20488;-77
2022/07/26 02:25:25;;;;;;;7.30;2.60;;;21.10;99.90;;;;;;4938100;29;20069;-77
2022/07/26 02:27:51;;;;;;;8.23;2.58;;;21.00;99.90;;;;;;4938872;29;20496;-77
2022/07/26 02:30:16;;;;;;;9.55;2.47;;;21.10;99.90;;;;;;4938221;29;20028;-77
2022/07/26 02:32:42;;;;;;;7.63;2.40;;;21.00;99.90;;;;;;4942081;29;20086;-77
2022/07/26 02:35:08;;;;;;;12.27;3.08;;;21.00;99.90;;;;;;4956948;29;20140;-77
2022/07/26 02:37:34;;;;;;;11.20;2.63;;;21.00;99.90;;;;;;4957577;29;20023;-77
2022/07/26 02:40:01;;;;;;;11.02;2.60;;;21.00;99.90;;;;;;4957363;29;20031;-77
2022/07/26 02:42:27;;;;;;;9.20;2.45;;;21.00;99.90;;;;;;4957361;29;20578;-77
2022/07/26 02:44:53;;;;;;;5.45;2.67;;;20.90;99.90;;;;;;4957305;29;20098;-77
2022/07/26 02:47:19;;;;;;;6.78;2.70;;;20.90;99.90;;;;;;4954066;29;20123;-77
2022/07/26 02:49:44;;;;;;;6.85;2.47;;;20.90;99.90;;;;;;4937540;29;20023;-77
2022/07/26 02:52:10;;;;;;;13.82;3.00;;;20.90;99.90;;;;;;4937959;29;20024;-77
2022/07/26 02:54:36;;;;;;;11.10;2.90;;;20.90;99.90;;;;;;4921127;29;20104;-77
2022/07/26 02:57:01;;;;;;;9.50;2.22;;;20.80;99.90;;;;;;4937626;29;20028;-77
2022/07/26 02:59:27;;;;;;;8.27;2.45;;;20.70;99.90;;;;;;4938022;29;20028;-77
2022/07/26 03:01:53;;;;;;;6.85;2.60;;;20.70;99.90;;;;;;4937724;29;20142;-77
2022/07/26 03:04:18;;;;;;;6.18;2.08;;;20.60;99.90;;;;;;4936912;29;20024;-77
2022/07/26 03:06:44;;;;;;;4.95;2.35;;;20.60;99.90;;;;;;4920628;29;20070;-76
2022/07/26 03:09:10;;;;;;;7.53;2.38;;;20.70;99.90;;;;;;4937763;29;20373;-77
2022/07/26 03:11:36;;;;;;;8.45;2.72;;;20.60;99.90;;;;;;4937716;29;20110;-77
2022/07/26 03:14:01;;;;;;;9.73;2.60;;;20.70;99.90;;;;;;4937470;29;20028;-77
2022/07/26 03:16:27;;;;;;;6.03;2.33;;;20.60;99.90;;;;;;4937348;29;20451;-77
2022/07/26 03:18:52;;;;;;;9.88;2.50;;;20.60;99.90;;;;;;4937311;29;20497;-77
2022/07/26 03:21:18;;;;;;;9.90;2.17;;;20.60;99.90;;;;;;4937336;29;20034;-77
2022/07/26 03:23:44;;;;;;;9.52;2.88;;;20.50;99.90;;;;;;4937594;29;20056;-77
2022/07/26 03:26:09;;;;;;;11.02;2.70;;;20.50;99.90;;;;;;4937530;29;20032;-77
2022/07/26 03:28:35;;;;;;;10.07;2.67;;;20.40;99.90;;;;;;4937073;29;20032;-77
2022/07/26 03:31:01;;;;;;;8.95;2.50;;;20.50;99.90;;;;;;4920253;29;20039;-77
2022/07/26 03:33:28;;;;;;;6.78;2.42;;;20.50;99.90;;;;;;4945411;29;20106;-77
2022/07/26 03:35:54;;;;;;;10.20;2.50;;;20.40;99.90;;;;;;4956880;29;20031;-77
2022/07/26 03:38:19;;;;;;;10.70;2.78;;;20.30;99.90;;;;;;4956217;29;20040;-77
2022/07/26 03:40:45;;;;;;;10.50;2.50;;;20.30;99.90;;;;;;4956281;29;20499;-77
2022/07/26 03:43:10;;;;;;;10.13;2.35;;;20.30;99.90;;;;;;4955900;29;20038;-77
2022/07/26 03:45:36;;;;;;;6.00;2.63;;;20.30;99.90;;;;;;4938903;29;20509;-77
2022/07/26 03:48:02;;;;;;;9.38;2.97;;;20.20;99.90;;;;;;4944767;29;20032;-77
2022/07/26 03:50:27;;;;;;;8.23;2.53;;;20.20;99.90;;;;;;4936752;29;20055;-77
2022/07/26 03:52:53;;;;;;;6.22;2.88;;;20.20;99.90;;;;;;4936953;29;20019;-77
2022/07/26 03:58:03;;;;;;;11.32;2.90;;;20.20;99.90;;;;;;4936682;29;20042;-77
2022/07/26 04:00:29;;;;;;;8.77;2.80;;;20.10;99.90;;;;;;4936279;29;20031;-77
2022/07/26 04:02:54;;;;;;;9.75;2.80;;;20.10;99.90;;;;;;4936311;29;20516;-77
2022/07/26 04:05:20;;;;;;;9.77;2.95;;;20.10;99.90;;;;;;4936222;29;20046;-77
2022/07/26 04:07:46;;;;;;;9.73;2.58;;;20.00;99.90;;;;;;4919655;29;20024;-77
2022/07/26 04:10:14;;;;;;;10.20;3.08;;;19.80;99.90;;;;;;4936503;29;20039;-77
2022/07/26 04:12:40;;;;;;;7.47;2.53;;;19.90;99.90;;;;;;4936960;29;20035;-77
2022/07/26 04:15:06;;;;;;;12.45;3.38;;;19.90;99.90;;;;;;4936259;29;20036;-76
2022/07/26 04:17:39;;;;;;;8.00;2.58;;;19.80;99.90;;;;;;4936291;29;20035;-72
2022/07/26 04:20:06;;;;;;;9.15;2.70;;;19.80;99.90;;;;;;4936301;29;20031;-74
2022/07/26 04:22:34;;;;;;;12.75;2.72;;;19.70;99.90;;;;;;4936089;29;20024;-74
2022/07/26 04:24:59;;;;;;;13.60;2.53;;;19.70;99.90;;;;;;4936003;29;20392;-74
2022/07/26 04:27:25;;;;;;;8.45;2.72;;;19.60;99.90;;;;;;4936286;29;20024;-73
2022/07/26 04:29:51;;;;;;;7.93;2.35;;;19.70;99.90;;;;;;4935990;29;20496;-73
2022/07/26 04:32:17;;;;;;;10.27;2.83;;;19.60;99.90;;;;;;4936454;29;20030;-73
2022/07/26 04:34:42;;;;;;;8.13;2.40;;;19.60;99.90;;;;;;4936259;29;20034;-73
2022/07/26 04:37:08;;;;;;;11.82;2.50;;;19.60;99.90;;;;;;4936129;29;20024;-78
2022/07/26 04:39:34;;;;;;;9.38;2.30;;;19.50;99.90;;;;;;4935381;29;20083;-78
2022/07/26 04:41:59;;;;;;;11.52;2.88;;;19.60;99.90;;;;;;4935923;29;20031;-79
2022/07/26 04:44:25;;;;;;;10.20;2.35;;;19.50;99.90;;;;;;4935502;29;20036;-79
2022/07/26 04:46:50;;;;;;;11.77;2.70;;;19.50;99.90;;;;;;4936130;29;20091;-79
2022/07/26 04:49:16;;;;;;;9.15;2.83;;;19.50;99.90;;;;;;4935939;29;20081;-79
2022/07/26 04:51:42;;;;;;;11.80;2.95;;;19.40;99.90;;;;;;4935467;29;20494;-78
2022/07/26 04:54:07;;;;;;;8.98;3.03;;;19.40;99.90;;;;;;4939612;29;20526;-78
2022/07/26 04:56:33;;;;;;;6.47;2.53;;;19.40;99.90;;;;;;4949684;29;20099;-77
2022/07/26 04:58:58;;;;;;;6.88;2.25;;;19.40;99.90;;;;;;4954393;29;20062;-78
2022/07/26 05:01:24;;;;;;;10.48;2.70;;;19.40;99.90;;;;;;4954987;29;20019;-78
2022/07/26 05:03:50;;;;;;;11.15;3.03;;;19.50;99.90;;;;;;4939486;28;20060;-77
2022/07/26 05:06:16;;;;;;;14.15;2.60;;;19.40;99.90;;;;;;4935761;29;20019;-77
2022/07/26 05:08:42;;;;;;;8.65;2.40;;;19.40;99.90;;;;;;4940923;29;20035;-77
2022/07/26 05:11:08;;;;;;;9.32;3.08;;;19.50;99.90;;;;;;4944412;29;20376;-77
2022/07/26 05:13:33;;;;;;;21.95;3.10;;;19.40;99.90;;;;;;4934449;29;20057;-78
2022/07/26 05:15:59;;;;;;;12.20;2.97;;;19.50;99.90;;;;;;4947569;29;20023;-78
2022/07/26 05:18:25;;;;;;;12.40;2.75;;;19.50;99.90;;;;;;4954398;29;20476;-79
2022/07/26 05:20:51;;;;;;;11.20;2.67;;;19.50;99.90;;;;;;4950390;29;20106;-79
2022/07/26 05:23:19;;;;;;;11.65;3.00;;;19.40;99.90;;;;;;4940577;29;20023;-78
2022/07/26 05:25:45;;;;;;;7.15;2.20;;;19.40;99.90;;;;;;4952920;29;20756;-79
2022/07/26 05:28:10;;;;;;;10.25;2.50;;;19.60;99.90;;;;;;4943534;29;20042;-79
2022/07/26 05:30:36;;;;;;;9.88;2.80;;;19.50;99.90;;;;;;4954154;29;20023;-79
2022/07/26 05:33:02;;;;;;;10.13;2.50;;;19.60;99.90;;;;;;4953719;29;20039;-79
2022/07/26 05:35:27;;;;;;;11.07;2.95;;;19.70;99.90;;;;;;4953691;29;20034;-79
2022/07/26 05:37:53;;;;;;;8.10;3.00;;;19.60;99.90;;;;;;4953213;29;20035;-78
2022/07/26 05:40:19;;;;;;;6.40;2.22;;;19.70;99.90;;;;;;4944530;29;20387;-79
2022/07/26 05:42:44;;;;;;;12.30;2.67;;;19.60;99.90;;;;;;4953974;29;20047;-79
2022/07/26 05:45:11;;;;;;;6.25;2.15;;;19.70;99.90;;;;;;4946543;29;20039;-78
2022/07/26 05:47:36;;;;;;;6.65;2.13;;;19.70;99.90;;;;;;4934476;29;20035;-74
2022/07/26 05:50:04;;;;;;;8.18;2.03;;;19.70;99.90;;;;;;4935307;29;20496;-77
2022/07/26 05:52:29;;;;;;;12.13;2.67;;;19.70;99.90;;;;;;4952831;28;20039;-79
2022/07/26 05:54:55;;;;;;;9.18;2.00;;;19.70;99.90;;;;;;4952110;29;20503;-78
2022/07/26 05:57:21;;;;;;;7.80;2.15;;;19.70;99.90;;;;;;4934059;29;20039;-78
2022/07/26 05:59:46;;;;;;;5.40;1.95;;;19.70;99.90;;;;;;4934942;29;20022;-78
2022/07/26 06:02:12;;;;;;;8.93;2.42;;;19.70;99.90;;;;;;4936396;28;20134;-78
2022/07/26 06:04:38;;;;;;;8.57;2.08;;;19.70;99.90;;;;;;4934761;29;20027;-78
2022/07/26 06:07:03;;;;;;;10.20;2.40;;;19.80;99.90;;;;;;4950259;29;20522;-78
2022/07/26 06:09:29;;;;;;;10.05;2.17;;;19.70;99.90;;;;;;4947564;29;20024;-77
2022/07/26 06:11:55;;;;;;;16.73;2.47;;;19.80;99.90;;;;;;4945968;29;20035;-78
2022/07/26 06:14:21;;;;;;;12.88;2.22;;;20.00;99.90;;;;;;4949025;29;20150;-78
2022/07/26 06:16:47;;;;;;;8.80;1.98;;;19.90;99.90;;;;;;4947009;29;20019;-77
2022/07/26 06:19:13;;;;;;;10.75;2.17;;;19.90;99.90;;;;;;4940184;29;20028;-78
2022/07/26 17:07:27;;;;;;;6.60;1.02;;;27.50;37.00;;;;;;5762785;23;20418;-78
2022/07/26 17:09:54;;;;;;;2.72;1.10;;;27.60;37.70;;;;;;4965803;28;20019;-79
2022/07/26 17:12:21;;;;;;;2.05;0.90;;;27.50;37.30;;;;;;4981874;28;20105;-78
2022/07/26 17:14:47;;;;;;;7.78;0.85;;;27.40;36.30;;;;;;4974216;28;20047;-78
2022/07/26 17:17:12;;;;;;;10.75;1.30;;;27.50;35.70;;;;;;4969638;28;20525;-77
2022/07/26 17:19:38;;;;;;;1.38;0.82;;;27.40;36.00;;;;;;4972391;28;20097;-76
2022/07/26 17:22:04;;;;;;;2.97;1.10;;;27.40;36.20;;;;;;4974267;28;20037;-76
2022/07/26 17:24:30;;;;;;;4.53;0.70;;;27.30;36.20;;;;;;4974777;28;20482;-78
2022/07/26 17:26:56;;;;;;;3.80;1.42;;;27.30;36.40;;;;;;4974539;28;20022;-77
2022/07/26 17:29:22;;;;;;;11.65;1.38;;;27.10;36.80;;;;;;4974928;28;20374;-77
2022/07/26 17:31:49;;;;;;;6.30;1.17;;;26.90;37.10;;;;;;4976653;28;20069;-77
2022/07/26 17:34:15;;;;;;;1.30;0.68;;;27.10;37.60;;;;;;4972218;28;20458;-77
2022/07/26 17:36:41;;;;;;;4.32;0.82;;;27.10;36.70;;;;;;4972939;28;20030;-78
2022/07/26 17:39:06;;;;;;;3.38;1.30;;;27.10;37.10;;;;;;4973247;28;20038;-76
2022/07/26 17:41:32;;;;;;;2.50;0.98;;;27.10;37.20;;;;;;4973503;28;20030;-77
2022/07/26 17:43:58;;;;;;;4.50;1.00;;;27.20;37.70;;;;;;4972110;28;20897;-74
2022/07/26 17:46:24;;;;;;;3.53;1.00;;;27.10;37.80;;;;;;4968875;28;20023;-79
2022/07/26 17:48:50;;;;;;;2.38;1.05;;;27.10;38.60;;;;;;4971016;28;20050;-75
2022/07/26 17:51:16;;;;;;;4.70;1.50;;;26.90;38.70;;;;;;4972699;28;20121;-82
2022/07/26 17:53:43;;;;;;;4.97;1.30;;;26.80;38.80;;;;;;4970312;28;20026;-82
2022/07/26 17:56:09;;;;;;;7.47;1.02;;;26.80;38.20;;;;;;4972661;28;20070;-77
2022/07/26 17:58:36;;;;;;;2.03;0.90;;;26.80;38.70;;;;;;4970594;28;20062;-76
2022/07/26 18:01:02;;;;;;;3.22;1.08;;;26.70;38.20;;;;;;4971619;28;20077;-75
2022/07/26 18:03:27;;;;;;;8.75;1.48;;;26.80;38.20;;;;;;4966795;28;20098;-76
2022/07/26 18:05:53;;;;;;;3.85;0.90;;;26.70;38.10;;;;;;4970961;28;20112;-77
2022/07/26 18:08:19;;;;;;;6.43;1.00;;;26.70;38.50;;;;;;4954554;28;20051;-76
2022/07/26 18:10:44;;;;;;;4.45;1.30;;;26.60;38.90;;;;;;4958537;28;20027;-77
2022/07/26 18:13:10;;;;;;;3.28;0.95;;;26.60;38.90;;;;;;4950839;28;20398;-76
2022/07/26 18:15:36;;;;;;;2.67;0.90;;;26.60;38.50;;;;;;4954580;28;20027;-77
2022/07/26 18:18:01;;;;;;;4.65;1.40;;;26.50;38.60;;;;;;4956700;28;20707;-76
2022/07/26 18:20:27;;;;;;;6.65;2.22;;;26.50;38.90;;;;;;4951537;28;20089;-78
2022/07/26 18:22:54;;;;;;;8.65;3.35;;;26.40;38.80;;;;;;4955460;28;20031;-78
2022/07/26 18:25:20;;;;;;;8.07;3.30;;;26.30;39.10;;;;;;4952867;28;20031;-76
2022/07/26 18:27:45;;;;;;;4.10;1.45;;;26.30;39.20;;;;;;4952858;29;20073;-76
2022/07/26 18:30:11;;;;;;;2.65;1.05;;;26.20;39.80;;;;;;4952546;29;20081;-77
2022/07/26 18:32:36;;;;;;;6.60;1.60;;;26.10;40.00;;;;;;4951707;29;20054;-76
2022/07/26 18:35:02;;;;;;;3.78;1.48;;;26.10;40.40;;;;;;4952458;29;20611;-77
2022/07/26 18:37:28;;;;;;;4.82;1.40;;;26.10;40.90;;;;;;4952762;29;20554;-76
2022/07/26 18:39:54;;;;;;;5.90;1.27;;;26.00;41.20;;;;;;4951273;28;20559;-75
2022/07/26 18:42:20;;;;;;;3.92;1.27;;;25.90;41.50;;;;;;4952179;29;20035;-76
2022/07/26 18:44:45;;;;;;;2.35;0.90;;;25.90;42.00;;;;;;4949551;29;20395;-76
2022/07/26 18:47:11;;;;;;;2.47;0.88;;;25.80;42.40;;;;;;4952423;29;20030;-75
2022/07/26 18:49:37;;;;;;;6.45;1.38;;;25.70;42.50;;;;;;4952561;29;20139;-76
2022/07/26 18:52:03;;;;;;;4.95;1.35;;;25.70;42.60;;;;;;4952465;29;20086;-76
2022/07/26 18:54:28;;;;;;;3.88;1.30;;;25.60;42.50;;;;;;4952776;29;20031;-76
2022/07/26 18:56:54;;;;;;;3.70;1.38;;;25.60;43.20;;;;;;4952386;29;20074;-76
2022/07/26 18:59:20;;;;;;;7.05;1.30;;;25.60;43.70;;;;;;4953936;28;20035;-77
2022/07/26 19:01:46;;;;;;;4.15;1.50;;;25.50;43.90;;;;;;4956160;28;20562;-77
2022/07/26 19:04:12;;;;;;;3.78;1.17;;;25.50;44.30;;;;;;4955642;29;20035;-76
2022/07/26 19:06:38;;;;;;;4.88;1.50;;;25.50;44.10;;;;;;4957987;29;20372;-78
2022/07/26 19:09:05;;;;;;;6.28;1.15;;;25.40;44.40;;;;;;4956983;28;20047;-77
2022/07/26 19:11:31;;;;;;;4.93;1.20;;;25.40;44.70;;;;;;4940493;29;20024;-78
2022/07/26 19:13:58;;;;;;;5.03;1.58;;;25.30;50.60;;;;;;4963996;28;20500;-77
2022/07/26 19:16:24;;;;;;;8.95;1.38;;;25.20;59.30;;;;;;4963468;28;20038;-76
2022/07/26 19:18:50;;;;;;;8.25;1.85;;;25.10;61.80;;;;;;4964362;28;20031;-77
2022/07/26 19:21:16;;;;;;;4.50;1.30;;;25.00;65.30;;;;;;4957156;28;20023;-77
2022/07/26 19:23:42;;;;;;;6.47;1.52;;;24.90;68.50;;;;;;4957947;28;20034;-77
2022/07/26 19:26:07;;;;;;;5.25;1.63;;;24.90;69.30;;;;;;4972699;28;20023;-77
2022/07/26 19:28:33;;;;;;;6.05;1.70;;;24.80;72.00;;;;;;4968063;28;20042;-76
2022/07/26 19:30:59;;;;;;;5.53;1.40;;;24.70;73.90;;;;;;4957994;28;20027;-77
2022/07/26 19:33:24;;;;;;;8.70;1.75;;;24.70;75.80;;;;;;4966424;28;20034;-77
2022/07/26 19:35:51;;;;;;;5.38;1.98;;;24.70;77.80;;;;;;4962897;28;20019;-77
2022/07/26 19:38:16;;;;;;;8.27;1.50;;;24.50;80.60;;;;;;4975851;28;20086;-77
2022/07/26 19:40:43;;;;;;;6.97;1.58;;;24.40;82.10;;;;;;4971864;28;20023;-77
2022/07/26 19:43:09;;;;;;;8.15;1.70;;;24.30;84.20;;;;;;4966994;28;20031;-78
2022/07/26 19:45:34;;;;;;;5.57;1.70;;;24.20;85.10;;;;;;4957616;28;20099;-77
2022/07/26 19:48:00;;;;;;;6.32;1.77;;;24.30;85.30;;;;;;4964836;28;20030;-77
2022/07/26 19:50:26;;;;;;;6.75;1.58;;;24.10;86.90;;;;;;4965715;28;20031;-77
2022/07/26 19:52:52;;;;;;;13.75;1.80;;;24.00;89.40;;;;;;4960756;28;20023;-77
2022/07/26 19:55:17;;;;;;;6.13;1.30;;;24.10;89.00;;;;;;4963755;28;20022;-77
2022/07/26 19:57:43;;;;;;;9.77;2.03;;;24.10;89.30;;;;;;4958675;28;20345;-76
2022/07/26 20:00:10;;;;;;;5.47;1.85;;;24.10;90.10;;;;;;4965640;28;20039;-77
2022/07/26 20:02:35;;;;;;;10.02;1.80;;;24.10;90.10;;;;;;4956759;28;20034;-81
2022/07/26 20:05:01;;;;;;;7.05;1.80;;;24.10;90.50;;;;;;4955139;28;20027;-77
2022/07/26 20:07:27;;;;;;;4.82;1.40;;;24.00;90.50;;;;;;4956559;28;20070;-76
2022/07/26 20:09:53;;;;;;;6.97;1.58;;;23.90;91.50;;;;;;4956142;28;20546;-76
2022/07/26 20:12:20;;;;;;;9.57;1.95;;;23.80;91.90;;;;;;4954890;28;20041;-76
2022/07/26 20:14:46;;;;;;;8.13;1.85;;;23.80;92.10;;;;;;4959396;28;20106;-77
2022/07/26 20:17:12;;;;;;;7.57;1.88;;;23.70;92.90;;;;;;4964143;28;20062;-77
2022/07/26 20:19:37;;;;;;;4.00;1.40;;;23.70;93.10;;;;;;4955418;28;20034;-76
2022/07/26 20:22:03;;;;;;;8.88;2.10;;;23.70;93.30;;;;;;4955860;28;20380;-77
2022/07/26 20:24:29;;;;;;;7.47;1.55;;;23.60;95.90;;;;;;4956371;28;20107;-76
2022/07/26 20:26:54;;;;;;;5.03;1.40;;;23.50;94.90;;;;;;4956374;28;20060;-76
2022/07/26 20:29:20;;;;;;;7.25;2.15;;;23.60;95.40;;;;;;4956018;28;20031;-76
2022/07/26 20:31:46;;;;;;;5.47;1.50;;;23.40;95.80;;;;;;4968357;28;20137;-76
2022/07/26 20:34:11;;;;;;;7.10;1.90;;;23.40;96.10;;;;;;4975508;28;20038;-76
2022/07/26 20:36:37;;;;;;;6.75;2.28;;;23.40;96.60;;;;;;4974367;28;20120;-76
2022/07/26 20:39:04;;;;;;;5.30;1.90;;;23.40;96.00;;;;;;4938476;29;20032;-76
2022/07/26 20:41:30;;;;;;;8.40;2.05;;;23.40;96.50;;;;;;4955024;29;20027;-77
2022/07/26 20:43:56;;;;;;;5.35;1.45;;;23.40;99.00;;;;;;4956002;29;20023;-76
2022/07/26 20:46:22;;;;;;;6.18;1.88;;;23.20;98.30;;;;;;4955852;29;20023;-76
2022/07/26 20:48:48;;;;;;;10.13;1.50;;;23.00;98.40;;;;;;4966611;28;20348;-76
2022/07/26 20:51:14;;;;;;;4.90;1.70;;;23.00;99.60;;;;;;4975068;28;20351;-76
2022/07/26 20:53:40;;;;;;;8.27;1.85;;;23.00;99.50;;;;;;4945470;29;20019;-76
2022/07/26 20:56:09;;;;;;;8.10;1.70;;;22.90;99.20;;;;;;4969970;28;20027;-76
2022/07/26 20:58:34;;;;;;;8.93;1.63;;;23.00;99.90;;;;;;4974856;28;20065;-76
2022/07/26 21:01:00;;;;;;;5.05;1.52;;;22.90;99.90;;;;;;4975070;28;20050;-76
2022/07/26 21:03:26;;;;;;;5.40;1.38;;;22.90;99.90;;;;;;4958241;28;20487;-77
2022/07/26 21:05:51;;;;;;;7.57;1.35;;;22.90;99.90;;;;;;4955284;29;20521;-76
2022/07/26 21:08:17;;;;;;;6.03;1.67;;;22.90;99.70;;;;;;4966794;28;20050;-76
2022/07/26 21:10:44;;;;;;;7.43;1.48;;;22.80;99.90;;;;;;4955149;29;20059;-76
2022/07/26 21:13:10;;;;;;;6.78;2.10;;;22.80;99.90;;;;;;4955149;29;20023;-76
2022/07/26 21:15:36;;;;;;;4.20;1.33;;;22.80;99.90;;;;;;4955827;29;20497;-76
2022/07/26 21:18:01;;;;;;;6.32;1.63;;;22.70;99.90;;;;;;4954684;28;20031;-77
2022/07/26 21:20:27;;;;;;;4.95;1.58;;;22.60;99.90;;;;;;4954771;29;20074;-76
2022/07/26 21:22:53;;;;;;;6.07;1.45;;;22.60;99.90;;;;;;4954940;28;20023;-76
2022/07/26 21:25:18;;;;;;;12.85;1.80;;;22.60;99.90;;;;;;4955208;29;20106;-76
2022/07/26 21:27:44;;;;;;;6.65;1.67;;;22.60;99.90;;;;;;4955238;29;20102;-76
2022/07/26 21:30:10;;;;;;;5.78;1.80;;;22.60;99.90;;;;;;4954444;28;20106;-76
2022/07/26 21:32:36;;;;;;;3.67;1.25;;;22.50;99.90;;;;;;4954542;29;20042;-76
2022/07/26 21:35:01;;;;;;;4.03;1.63;;;22.40;99.90;;;;;;4955163;29;20383;-76
2022/07/26 21:37:27;;;;;;;5.97;1.70;;;22.50;99.90;;;;;;4955411;29;20106;-76
2022/07/26 21:39:53;;;;;;;4.97;1.48;;;22.40;99.90;;;;;;4962227;28;20093;-77
2022/07/26 21:42:18;;;;;;;5.40;1.80;;;22.40;99.90;;;;;;4958902;28;20039;-76
2022/07/26 21:44:44;;;;;;;5.28;1.50;;;22.40;99.90;;;;;;4957071;28;20023;-76
2022/07/26 21:47:10;;;;;;;6.13;1.40;;;22.40;99.90;;;;;;4963313;28;20042;-76
2022/07/26 21:49:36;;;;;;;6.65;1.45;;;22.40;99.90;;;;;;4965256;28;20403;-76
2022/07/26 21:52:01;;;;;;;6.22;1.70;;;22.40;99.90;;;;;;4954936;29;20032;-76
2022/07/26 21:54:27;;;;;;;5.93;1.80;;;22.40;99.90;;;;;;4956498;28;20015;-76
2022/07/26 21:56:53;;;;;;;6.30;1.40;;;22.30;99.90;;;;;;4945246;29;20554;-76
2022/07/26 21:59:18;;;;;;;6.97;1.73;;;22.30;99.90;;;;;;4954814;28;20106;-76
2022/07/26 22:01:44;;;;;;;6.45;1.60;;;22.20;99.90;;;;;;4954265;29;20115;-76
2022/07/26 22:04:10;;;;;;;4.82;1.55;;;22.30;99.90;;;;;;4954353;29;20028;-76
2022/07/26 22:06:36;;;;;;;5.53;1.85;;;22.20;99.90;;;;;;4954824;29;20023;-76
2022/07/26 22:09:03;;;;;;;8.75;1.80;;;22.10;99.90;;;;;;4972091;28;20058;-76
2022/07/26 22:11:29;;;;;;;5.70;1.98;;;22.10;99.90;;;;;;4963228;28;20043;-76
2022/07/26 22:13:55;;;;;;;9.55;1.77;;;22.10;99.90;;;;;;4954746;29;20090;-76
2022/07/26 22:16:20;;;;;;;8.20;1.55;;;22.10;99.90;;;;;;4937038;29;20050;-76
2022/07/26 22:18:46;;;;;;;5.70;1.50;;;22.10;99.90;;;;;;4936967;29;20023;-77
2022/07/26 22:21:12;;;;;;;7.63;1.88;;;22.10;99.90;;;;;;4954305;29;20027;-76
2022/07/26 22:23:38;;;;;;;5.53;1.70;;;22.10;99.90;;;;;;4954748;28;20035;-76
2022/07/26 22:26:04;;;;;;;8.07;2.05;;;21.90;99.90;;;;;;4953950;29;20475;-76
2022/07/26 22:28:31;;;;;;;14.00;2.63;;;21.90;99.90;;;;;;4954427;29;20027;-77
2022/07/26 22:30:58;;;;;;;3.78;1.60;;;21.90;99.90;;;;;;4954110;29;20043;-76
2022/07/26 22:33:24;;;;;;;6.90;1.60;;;21.90;99.90;;;;;;4954731;28;20023;-76
2022/07/26 22:35:50;;;;;;;6.25;2.00;;;22.00;99.90;;;;;;4958039;29;20494;-76
2022/07/26 22:38:15;;;;;;;5.47;1.48;;;21.90;99.90;;;;;;4940348;29;20031;-76
2022/07/26 22:40:42;;;;;;;6.28;2.33;;;21.90;99.90;;;;;;4940769;29;20392;-76
2022/07/26 22:43:09;;;;;;;7.80;1.90;;;21.90;99.90;;;;;;4958669;29;20381;-76
2022/07/26 22:45:36;;;;;;;7.90;1.60;;;21.80;99.90;;;;;;4958280;29;20031;-76
2022/07/26 22:48:03;;;;;;;6.25;2.05;;;21.80;99.90;;;;;;4966721;28;20031;-76
2022/07/26 22:50:29;;;;;;;7.57;1.85;;;21.70;99.90;;;;;;4960057;28;20445;-76
2022/07/26 22:52:54;;;;;;;5.18;1.95;;;21.70;99.90;;;;;;4942646;29;20078;-76
2022/07/26 22:55:20;;;;;;;5.18;1.63;;;21.70;99.90;;;;;;4958964;28;20102;-76
2022/07/26 22:57:47;;;;;;;5.65;1.48;;;21.70;99.90;;;;;;4977022;28;20027;-76
2022/07/26 23:00:15;;;;;;;10.07;2.20;;;21.70;99.90;;;;;;4977466;28;20467;-77
2022/07/26 23:02:40;;;;;;;7.25;2.40;;;21.70;99.90;;;;;;4968620;28;20038;-76
2022/07/26 23:05:07;;;;;;;9.85;1.90;;;21.60;99.90;;;;;;4957936;29;20027;-76
2022/07/26 23:07:33;;;;;;;6.80;1.67;;;21.60;99.90;;;;;;4962898;28;20035;-76
2022/07/26 23:10:00;;;;;;;5.65;1.65;;;21.60;99.90;;;;;;4961548;28;20054;-76
2022/07/26 23:12:26;;;;;;;5.22;1.70;;;21.60;99.90;;;;;;4957663;28;20024;-76
2022/07/26 23:14:52;;;;;;;4.90;1.40;;;21.60;99.90;;;;;;4969082;28;20038;-76
2022/07/26 23:17:18;;;;;;;4.00;1.65;;;21.60;99.90;;;;;;4959991;28;20026;-76
2022/07/26 23:19:44;;;;;;;5.93;1.90;;;21.60;99.90;;;;;;4959108;28;20031;-76
2022/07/26 23:22:10;;;;;;;6.53;1.58;;;21.50;99.90;;;;;;4957221;29;20502;-76
2022/07/26 23:24:36;;;;;;;8.75;1.92;;;21.60;99.90;;;;;;4957246;29;20023;-77
2022/07/26 23:27:01;;;;;;;9.63;2.00;;;21.60;99.90;;;;;;4957474;29;20470;-76
2022/07/26 23:29:27;;;;;;;9.15;1.90;;;21.50;99.90;;;;;;4957644;29;20031;-76